sensor_id;sensor_type;location;lat;lon;timestamp;P1;durP1;ratioP1;P2;durP2;ratioP2
59976;SDS011;45837;51.076;3.578;2022-11-20T00:00:44;20.50;;;15.65;;
59976;SDS011;45837;51.076;3.578;2022-11-20T00:03:10;21.50;;;16.30;;
59976;SDS011;45837;51.076;3.578;2022-11-20T00:05:36;22.60;;;15.50;;
59976;SDS011;45837;51.076;3.578;2022-11-20T00:08:01;19.80;;;15.23;;
59976;SDS011;45837;51.076;3.578;2022-11-20T00:10:27;20.83;;;15.95;;
59976;SDS011;45837;51.076;3.578;2022-11-20T00:12:53;20.55;;;15.82;;
59976;SDS011;45837;51.076;3.578;2022-11-20T00:15:19;19.75;;;15.43;;
59976;SDS011;45837;51.076;3.578;2022-11-20T00:17:45;21.98;;;15.55;;
59976;SDS011;45837;51.076;3.578;2022-11-20T00:20:11;21.38;;;16.00;;
59976;SDS011;45837;51.076;3.578;2022-11-20T00:22:38;22.67;;;15.50;;
59976;SDS011;45837;51.076;3.578;2022-11-20T00:25:04;19.08;;;14.88;;
59976;SDS011;45837;51.076;3.578;2022-11-20T00:27:30;20.13;;;16.13;;
59976;SDS011;45837;51.076;3.578;2022-11-20T00:29:55;21.25;;;16.25;;
59976;SDS011;45837;51.076;3.578;2022-11-20T00:32:21;20.38;;;15.80;;
59976;SDS011;45837;51.076;3.578;2022-11-20T00:34:47;19.40;;;14.90;;
59976;SDS011;45837;51.076;3.578;2022-11-20T00:37:13;22.23;;;15.48;;
59976;SDS011;45837;51.076;3.578;2022-11-20T00:39:39;19.92;;;15.65;;
59976;SDS011;45837;51.076;3.578;2022-11-20T00:42:04;20.15;;;15.00;;
59976;SDS011;45837;51.076;3.578;2022-11-20T00:44:30;19.77;;;15.70;;
59976;SDS011;45837;51.076;3.578;2022-11-20T00:46:56;19.35;;;15.65;;
59976;SDS011;45837;51.076;3.578;2022-11-20T00:49:22;21.15;;;15.27;;
59976;SDS011;45837;51.076;3.578;2022-11-20T00:51:48;18.92;;;14.98;;
59976;SDS011;45837;51.076;3.578;2022-11-20T00:54:14;20.63;;;16.05;;
59976;SDS011;45837;51.076;3.578;2022-11-20T00:56:39;21.35;;;15.57;;
59976;SDS011;45837;51.076;3.578;2022-11-20T00:59:05;20.17;;;15.55;;
59976;SDS011;45837;51.076;3.578;2022-11-20T01:01:31;18.58;;;14.77;;
59976;SDS011;45837;51.076;3.578;2022-11-20T01:03:58;19.75;;;15.07;;
59976;SDS011;45837;51.076;3.578;2022-11-20T01:06:29;21.58;;;14.85;;
59976;SDS011;45837;51.076;3.578;2022-11-20T01:08:58;22.13;;;15.95;;
59976;SDS011;45837;51.076;3.578;2022-11-20T01:11:27;19.48;;;15.35;;
59976;SDS011;45837;51.076;3.578;2022-11-20T01:13:55;22.42;;;14.90;;
59976;SDS011;45837;51.076;3.578;2022-11-20T01:16:24;22.15;;;15.05;;
59976;SDS011;45837;51.076;3.578;2022-11-20T01:18:53;20.75;;;15.77;;
59976;SDS011;45837;51.076;3.578;2022-11-20T01:21:26;19.73;;;15.05;;
59976;SDS011;45837;51.076;3.578;2022-11-20T01:23:53;21.25;;;15.65;;
59976;SDS011;45837;51.076;3.578;2022-11-20T01:26:21;20.00;;;15.88;;
59976;SDS011;45837;51.076;3.578;2022-11-20T01:28:48;19.17;;;15.10;;
59976;SDS011;45837;51.076;3.578;2022-11-20T01:31:16;18.88;;;15.63;;
59976;SDS011;45837;51.076;3.578;2022-11-20T01:33:50;21.25;;;14.63;;
59976;SDS011;45837;51.076;3.578;2022-11-20T01:36:19;20.25;;;15.57;;
59976;SDS011;45837;51.076;3.578;2022-11-20T01:38:46;21.20;;;15.38;;
59976;SDS011;45837;51.076;3.578;2022-11-20T01:41:13;19.08;;;15.43;;
59976;SDS011;45837;51.076;3.578;2022-11-20T01:44:00;22.60;;;15.75;;
59976;SDS011;45837;51.076;3.578;2022-11-20T01:46:27;19.25;;;15.40;;
59976;SDS011;45837;51.076;3.578;2022-11-20T01:48:57;18.70;;;14.80;;
59976;SDS011;45837;51.076;3.578;2022-11-20T01:51:43;18.17;;;14.82;;
59976;SDS011;45837;51.076;3.578;2022-11-20T01:54:14;19.20;;;14.80;;
59976;SDS011;45837;51.076;3.578;2022-11-20T01:56:51;20.85;;;15.18;;
59976;SDS011;45837;51.076;3.578;2022-11-20T01:59:19;18.88;;;14.98;;
59976;SDS011;45837;51.076;3.578;2022-11-20T02:01:47;20.83;;;15.80;;
59976;SDS011;45837;51.076;3.578;2022-11-20T02:04:12;19.45;;;15.02;;
59976;SDS011;45837;51.076;3.578;2022-11-20T02:06:44;18.95;;;15.57;;
59976;SDS011;45837;51.076;3.578;2022-11-20T02:09:14;19.23;;;15.15;;
59976;SDS011;45837;51.076;3.578;2022-11-20T02:11:40;19.30;;;14.88;;
59976;SDS011;45837;51.076;3.578;2022-11-20T02:14:07;20.90;;;15.35;;
59976;SDS011;45837;51.076;3.578;2022-11-20T02:16:35;20.50;;;15.30;;
59976;SDS011;45837;51.076;3.578;2022-11-20T02:19:04;20.40;;;15.93;;
59976;SDS011;45837;51.076;3.578;2022-11-20T02:24:26;18.63;;;14.98;;
59976;SDS011;45837;51.076;3.578;2022-11-20T02:26:54;21.73;;;15.25;;
59976;SDS011;45837;51.076;3.578;2022-11-20T02:29:35;18.45;;;15.18;;
59976;SDS011;45837;51.076;3.578;2022-11-20T02:32:22;19.35;;;15.15;;
59976;SDS011;45837;51.076;3.578;2022-11-20T02:34:54;20.73;;;15.23;;
59976;SDS011;45837;51.076;3.578;2022-11-20T02:37:21;19.15;;;14.35;;
59976;SDS011;45837;51.076;3.578;2022-11-20T02:39:48;19.58;;;15.02;;
59976;SDS011;45837;51.076;3.578;2022-11-20T02:42:16;19.35;;;14.68;;
59976;SDS011;45837;51.076;3.578;2022-11-20T02:44:42;19.98;;;15.30;;
59976;SDS011;45837;51.076;3.578;2022-11-20T02:47:08;18.85;;;14.55;;
59976;SDS011;45837;51.076;3.578;2022-11-20T02:49:34;19.08;;;15.27;;
59976;SDS011;45837;51.076;3.578;2022-11-20T02:52:00;19.38;;;15.10;;
59976;SDS011;45837;51.076;3.578;2022-11-20T02:54:26;19.20;;;15.40;;
59976;SDS011;45837;51.076;3.578;2022-11-20T02:56:52;19.67;;;15.50;;
59976;SDS011;45837;51.076;3.578;2022-11-20T02:59:18;18.98;;;15.10;;
59976;SDS011;45837;51.076;3.578;2022-11-20T03:01:43;19.23;;;15.40;;
59976;SDS011;45837;51.076;3.578;2022-11-20T03:04:09;18.27;;;14.93;;
59976;SDS011;45837;51.076;3.578;2022-11-20T03:06:35;18.35;;;14.55;;
59976;SDS011;45837;51.076;3.578;2022-11-20T03:09:01;19.42;;;15.02;;
59976;SDS011;45837;51.076;3.578;2022-11-20T03:11:27;17.85;;;14.95;;
59976;SDS011;45837;51.076;3.578;2022-11-20T03:13:54;19.10;;;15.40;;
59976;SDS011;45837;51.076;3.578;2022-11-20T03:16:20;18.05;;;14.88;;
59976;SDS011;45837;51.076;3.578;2022-11-20T03:18:47;22.75;;;15.88;;
59976;SDS011;45837;51.076;3.578;2022-11-20T03:21:13;19.13;;;15.10;;
59976;SDS011;45837;51.076;3.578;2022-11-20T03:23:40;21.30;;;15.68;;
59976;SDS011;45837;51.076;3.578;2022-11-20T03:26:14;20.13;;;15.93;;
59976;SDS011;45837;51.076;3.578;2022-11-20T03:28:51;19.85;;;15.52;;
59976;SDS011;45837;51.076;3.578;2022-11-20T03:31:27;19.60;;;15.73;;
59976;SDS011;45837;51.076;3.578;2022-11-20T03:33:55;19.17;;;15.50;;
59976;SDS011;45837;51.076;3.578;2022-11-20T03:36:21;19.23;;;15.30;;
59976;SDS011;45837;51.076;3.578;2022-11-20T03:38:47;20.83;;;15.75;;
59976;SDS011;45837;51.076;3.578;2022-11-20T03:41:15;19.73;;;15.55;;
59976;SDS011;45837;51.076;3.578;2022-11-20T03:43:53;20.92;;;15.68;;
59976;SDS011;45837;51.076;3.578;2022-11-20T03:46:26;19.08;;;15.30;;
59976;SDS011;45837;51.076;3.578;2022-11-20T03:48:53;20.40;;;15.77;;
59976;SDS011;45837;51.076;3.578;2022-11-20T03:51:21;18.90;;;14.60;;
59976;SDS011;45837;51.076;3.578;2022-11-20T03:53:47;18.90;;;14.65;;
59976;SDS011;45837;51.076;3.578;2022-11-20T03:56:15;22.15;;;16.30;;
59976;SDS011;45837;51.076;3.578;2022-11-20T03:58:43;19.83;;;15.68;;
59976;SDS011;45837;51.076;3.578;2022-11-20T04:01:10;18.27;;;14.90;;
59976;SDS011;45837;51.076;3.578;2022-11-20T04:03:38;21.58;;;16.17;;
59976;SDS011;45837;51.076;3.578;2022-11-20T04:06:06;19.15;;;14.57;;
59976;SDS011;45837;51.076;3.578;2022-11-20T04:08:32;20.70;;;15.80;;
59976;SDS011;45837;51.076;3.578;2022-11-20T04:11:08;20.65;;;15.77;;
59976;SDS011;45837;51.076;3.578;2022-11-20T04:13:38;18.15;;;14.63;;
59976;SDS011;45837;51.076;3.578;2022-11-20T04:16:05;20.27;;;15.63;;
59976;SDS011;45837;51.076;3.578;2022-11-20T04:18:32;18.27;;;14.80;;
59976;SDS011;45837;51.076;3.578;2022-11-20T04:20:58;18.10;;;14.95;;
59976;SDS011;45837;51.076;3.578;2022-11-20T04:23:24;20.45;;;14.88;;
59976;SDS011;45837;51.076;3.578;2022-11-20T04:25:50;19.85;;;15.35;;
59976;SDS011;45837;51.076;3.578;2022-11-20T04:28:16;19.40;;;15.32;;
59976;SDS011;45837;51.076;3.578;2022-11-20T04:30:42;19.02;;;15.00;;
59976;SDS011;45837;51.076;3.578;2022-11-20T04:33:08;20.15;;;15.35;;
59976;SDS011;45837;51.076;3.578;2022-11-20T04:35:34;19.55;;;14.75;;
59976;SDS011;45837;51.076;3.578;2022-11-20T04:38:00;22.50;;;15.45;;
59976;SDS011;45837;51.076;3.578;2022-11-20T04:40:30;20.38;;;15.88;;
59976;SDS011;45837;51.076;3.578;2022-11-20T04:42:56;24.35;;;15.57;;
59976;SDS011;45837;51.076;3.578;2022-11-20T04:45:22;20.00;;;14.85;;
59976;SDS011;45837;51.076;3.578;2022-11-20T04:47:48;19.55;;;15.90;;
59976;SDS011;45837;51.076;3.578;2022-11-20T04:50:14;23.38;;;15.73;;
59976;SDS011;45837;51.076;3.578;2022-11-20T04:52:40;19.88;;;15.52;;
59976;SDS011;45837;51.076;3.578;2022-11-20T04:55:06;20.77;;;15.48;;
59976;SDS011;45837;51.076;3.578;2022-11-20T04:57:32;19.65;;;15.85;;
59976;SDS011;45837;51.076;3.578;2022-11-20T04:59:58;19.42;;;15.20;;
59976;SDS011;45837;51.076;3.578;2022-11-20T05:02:24;20.85;;;15.60;;
59976;SDS011;45837;51.076;3.578;2022-11-20T05:04:50;19.67;;;15.48;;
59976;SDS011;45837;51.076;3.578;2022-11-20T05:07:15;20.13;;;15.15;;
59976;SDS011;45837;51.076;3.578;2022-11-20T05:09:41;22.40;;;16.75;;
59976;SDS011;45837;51.076;3.578;2022-11-20T05:12:07;18.75;;;15.35;;
59976;SDS011;45837;51.076;3.578;2022-11-20T05:14:34;19.30;;;14.90;;
59976;SDS011;45837;51.076;3.578;2022-11-20T05:17:00;20.83;;;16.30;;
59976;SDS011;45837;51.076;3.578;2022-11-20T05:19:26;19.65;;;15.15;;
59976;SDS011;45837;51.076;3.578;2022-11-20T05:21:51;20.05;;;15.88;;
59976;SDS011;45837;51.076;3.578;2022-11-20T05:24:17;19.20;;;15.07;;
59976;SDS011;45837;51.076;3.578;2022-11-20T05:26:43;18.77;;;14.27;;
59976;SDS011;45837;51.076;3.578;2022-11-20T05:29:10;19.80;;;15.27;;
59976;SDS011;45837;51.076;3.578;2022-11-20T05:31:38;20.23;;;15.50;;
59976;SDS011;45837;51.076;3.578;2022-11-20T05:34:05;19.90;;;14.57;;
59976;SDS011;45837;51.076;3.578;2022-11-20T05:36:31;21.55;;;14.93;;
59976;SDS011;45837;51.076;3.578;2022-11-20T05:38:58;19.20;;;15.65;;
59976;SDS011;45837;51.076;3.578;2022-11-20T05:41:24;17.92;;;14.27;;
59976;SDS011;45837;51.076;3.578;2022-11-20T05:43:50;19.25;;;15.45;;
59976;SDS011;45837;51.076;3.578;2022-11-20T05:46:17;20.58;;;15.43;;
59976;SDS011;45837;51.076;3.578;2022-11-20T05:48:44;18.38;;;14.93;;
59976;SDS011;45837;51.076;3.578;2022-11-20T05:51:11;18.83;;;14.27;;
59976;SDS011;45837;51.076;3.578;2022-11-20T05:53:39;19.27;;;14.77;;
59976;SDS011;45837;51.076;3.578;2022-11-20T05:56:06;18.73;;;14.85;;
59976;SDS011;45837;51.076;3.578;2022-11-20T05:58:36;19.13;;;15.48;;
59976;SDS011;45837;51.076;3.578;2022-11-20T06:01:04;21.77;;;15.32;;
59976;SDS011;45837;51.076;3.578;2022-11-20T06:03:36;18.45;;;14.05;;
59976;SDS011;45837;51.076;3.578;2022-11-20T06:06:03;19.73;;;15.35;;
59976;SDS011;45837;51.076;3.578;2022-11-20T06:08:30;19.60;;;15.05;;
59976;SDS011;45837;51.076;3.578;2022-11-20T06:10:56;18.15;;;14.20;;
59976;SDS011;45837;51.076;3.578;2022-11-20T06:13:22;19.00;;;14.20;;
59976;SDS011;45837;51.076;3.578;2022-11-20T06:15:49;18.45;;;14.20;;
59976;SDS011;45837;51.076;3.578;2022-11-20T06:18:15;18.80;;;13.70;;
59976;SDS011;45837;51.076;3.578;2022-11-20T06:20:41;17.92;;;14.05;;
59976;SDS011;45837;51.076;3.578;2022-11-20T06:23:07;19.58;;;14.40;;
59976;SDS011;45837;51.076;3.578;2022-11-20T06:25:33;20.88;;;14.95;;
59976;SDS011;45837;51.076;3.578;2022-11-20T06:28:02;20.45;;;14.00;;
59976;SDS011;45837;51.076;3.578;2022-11-20T06:30:27;17.98;;;14.10;;
59976;SDS011;45837;51.076;3.578;2022-11-20T06:32:53;17.80;;;14.35;;
59976;SDS011;45837;51.076;3.578;2022-11-20T06:35:19;17.48;;;13.75;;
59976;SDS011;45837;51.076;3.578;2022-11-20T06:37:45;17.13;;;13.93;;
59976;SDS011;45837;51.076;3.578;2022-11-20T06:40:11;17.63;;;13.35;;
59976;SDS011;45837;51.076;3.578;2022-11-20T06:42:37;20.58;;;14.77;;
59976;SDS011;45837;51.076;3.578;2022-11-20T06:45:03;24.65;;;14.10;;
59976;SDS011;45837;51.076;3.578;2022-11-20T06:47:29;24.17;;;14.77;;
59976;SDS011;45837;51.076;3.578;2022-11-20T06:49:55;25.70;;;14.77;;
59976;SDS011;45837;51.076;3.578;2022-11-20T06:52:20;21.85;;;14.38;;
59976;SDS011;45837;51.076;3.578;2022-11-20T06:54:46;28.40;;;14.90;;
59976;SDS011;45837;51.076;3.578;2022-11-20T06:57:12;24.77;;;15.07;;
59976;SDS011;45837;51.076;3.578;2022-11-20T06:59:38;22.98;;;14.60;;
59976;SDS011;45837;51.076;3.578;2022-11-20T07:02:04;25.90;;;14.60;;
59976;SDS011;45837;51.076;3.578;2022-11-20T07:04:31;28.80;;;14.82;;
59976;SDS011;45837;51.076;3.578;2022-11-20T07:06:57;19.30;;;13.38;;
59976;SDS011;45837;51.076;3.578;2022-11-20T07:09:22;20.33;;;13.60;;
59976;SDS011;45837;51.076;3.578;2022-11-20T07:11:48;32.35;;;14.73;;
59976;SDS011;45837;51.076;3.578;2022-11-20T07:14:14;30.58;;;13.23;;
59976;SDS011;45837;51.076;3.578;2022-11-20T07:16:40;18.85;;;12.40;;
59976;SDS011;45837;51.076;3.578;2022-11-20T07:19:06;21.48;;;12.15;;
59976;SDS011;45837;51.076;3.578;2022-11-20T07:21:31;23.45;;;12.68;;
59976;SDS011;45837;51.076;3.578;2022-11-20T07:23:57;31.83;;;12.00;;
59976;SDS011;45837;51.076;3.578;2022-11-20T07:26:23;24.15;;;11.52;;
59976;SDS011;45837;51.076;3.578;2022-11-20T07:28:49;16.50;;;11.23;;
59976;SDS011;45837;51.076;3.578;2022-11-20T07:31:15;17.73;;;10.73;;
59976;SDS011;45837;51.076;3.578;2022-11-20T07:33:41;18.77;;;11.07;;
59976;SDS011;45837;51.076;3.578;2022-11-20T07:36:06;21.40;;;10.68;;
59976;SDS011;45837;51.076;3.578;2022-11-20T07:38:32;17.65;;;11.52;;
59976;SDS011;45837;51.076;3.578;2022-11-20T07:40:58;19.45;;;10.40;;
59976;SDS011;45837;51.076;3.578;2022-11-20T07:43:26;17.42;;;10.68;;
59976;SDS011;45837;51.076;3.578;2022-11-20T07:45:56;15.13;;;9.98;;
59976;SDS011;45837;51.076;3.578;2022-11-20T07:48:23;16.30;;;10.85;;
59976;SDS011;45837;51.076;3.578;2022-11-20T07:50:49;26.95;;;10.38;;
59976;SDS011;45837;51.076;3.578;2022-11-20T07:53:18;18.10;;;11.02;;
59976;SDS011;45837;51.076;3.578;2022-11-20T07:55:46;21.20;;;9.98;;
59976;SDS011;45837;51.076;3.578;2022-11-20T07:58:12;21.20;;;10.07;;
59976;SDS011;45837;51.076;3.578;2022-11-20T08:00:39;19.52;;;10.00;;
59976;SDS011;45837;51.076;3.578;2022-11-20T08:03:05;19.92;;;9.63;;
59976;SDS011;45837;51.076;3.578;2022-11-20T08:05:32;27.02;;;10.20;;
59976;SDS011;45837;51.076;3.578;2022-11-20T08:07:58;23.60;;;10.48;;
59976;SDS011;45837;51.076;3.578;2022-11-20T08:10:24;22.40;;;9.85;;
59976;SDS011;45837;51.076;3.578;2022-11-20T08:12:51;31.27;;;9.57;;
59976;SDS011;45837;51.076;3.578;2022-11-20T08:15:36;23.42;;;9.85;;
59976;SDS011;45837;51.076;3.578;2022-11-20T08:18:04;36.00;;;9.00;;
59976;SDS011;45837;51.076;3.578;2022-11-20T08:20:31;20.75;;;10.07;;
59976;SDS011;45837;51.076;3.578;2022-11-20T08:23:01;20.95;;;9.05;;
59976;SDS011;45837;51.076;3.578;2022-11-20T08:25:30;16.75;;;10.07;;
59976;SDS011;45837;51.076;3.578;2022-11-20T08:27:57;22.00;;;10.30;;
59976;SDS011;45837;51.076;3.578;2022-11-20T08:30:24;25.42;;;9.63;;
59976;SDS011;45837;51.076;3.578;2022-11-20T08:32:50;21.42;;;9.82;;
59976;SDS011;45837;51.076;3.578;2022-11-20T08:35:16;26.98;;;10.43;;
59976;SDS011;45837;51.076;3.578;2022-11-20T08:37:45;22.58;;;9.98;;
59976;SDS011;45837;51.076;3.578;2022-11-20T08:40:12;25.58;;;9.98;;
59976;SDS011;45837;51.076;3.578;2022-11-20T08:42:45;23.85;;;9.68;;
59976;SDS011;45837;51.076;3.578;2022-11-20T08:45:15;18.13;;;9.85;;
59976;SDS011;45837;51.076;3.578;2022-11-20T08:47:42;19.85;;;9.48;;
59976;SDS011;45837;51.076;3.578;2022-11-20T08:50:09;21.17;;;8.60;;
59976;SDS011;45837;51.076;3.578;2022-11-20T08:52:36;32.70;;;10.05;;
59976;SDS011;45837;51.076;3.578;2022-11-20T08:55:03;17.45;;;8.68;;
59976;SDS011;45837;51.076;3.578;2022-11-20T08:57:33;32.50;;;9.98;;
59976;SDS011;45837;51.076;3.578;2022-11-20T09:00:00;26.52;;;9.65;;
59976;SDS011;45837;51.076;3.578;2022-11-20T09:02:27;27.17;;;9.15;;
59976;SDS011;45837;51.076;3.578;2022-11-20T09:04:52;25.85;;;9.45;;
59976;SDS011;45837;51.076;3.578;2022-11-20T09:07:18;21.63;;;9.95;;
59976;SDS011;45837;51.076;3.578;2022-11-20T09:09:45;23.90;;;10.55;;
59976;SDS011;45837;51.076;3.578;2022-11-20T09:12:11;32.70;;;10.05;;
59976;SDS011;45837;51.076;3.578;2022-11-20T09:14:37;20.38;;;9.95;;
59976;SDS011;45837;51.076;3.578;2022-11-20T09:17:02;28.00;;;11.23;;
59976;SDS011;45837;51.076;3.578;2022-11-20T09:19:28;26.88;;;10.50;;
59976;SDS011;45837;51.076;3.578;2022-11-20T09:21:54;29.17;;;11.00;;
59976;SDS011;45837;51.076;3.578;2022-11-20T09:24:20;28.80;;;11.65;;
59976;SDS011;45837;51.076;3.578;2022-11-20T09:26:46;28.17;;;12.07;;
59976;SDS011;45837;51.076;3.578;2022-11-20T09:29:12;26.55;;;11.48;;
59976;SDS011;45837;51.076;3.578;2022-11-20T09:31:38;32.35;;;11.98;;
59976;SDS011;45837;51.076;3.578;2022-11-20T09:34:04;28.42;;;12.40;;
59976;SDS011;45837;51.076;3.578;2022-11-20T09:36:30;28.63;;;11.65;;
59976;SDS011;45837;51.076;3.578;2022-11-20T09:38:56;31.52;;;12.35;;
59976;SDS011;45837;51.076;3.578;2022-11-20T09:41:35;27.23;;;12.43;;
59976;SDS011;45837;51.076;3.578;2022-11-20T09:46:45;35.50;;;11.68;;
59976;SDS011;45837;51.076;3.578;2022-11-20T09:54:52;25.85;;;12.15;;
59976;SDS011;45837;51.076;3.578;2022-11-20T09:57:24;54.58;;;14.02;;
59976;SDS011;45837;51.076;3.578;2022-11-20T10:00:03;40.67;;;13.65;;
59976;SDS011;45837;51.076;3.578;2022-11-20T10:05:39;31.83;;;13.70;;
59976;SDS011;45837;51.076;3.578;2022-11-20T10:27:32;41.42;;;12.27;;
59976;SDS011;45837;51.076;3.578;2022-11-20T10:30:09;49.13;;;12.00;;
59976;SDS011;45837;51.076;3.578;2022-11-20T10:32:43;47.28;;;12.60;;
59976;SDS011;45837;51.076;3.578;2022-11-20T10:37:46;30.58;;;10.95;;
59976;SDS011;45837;51.076;3.578;2022-11-20T10:40:22;23.48;;;10.70;;
59976;SDS011;45837;51.076;3.578;2022-11-20T10:42:53;33.97;;;10.55;;
59976;SDS011;45837;51.076;3.578;2022-11-20T10:47:56;23.65;;;10.45;;
59976;SDS011;45837;51.076;3.578;2022-11-20T10:50:41;23.42;;;8.70;;
59976;SDS011;45837;51.076;3.578;2022-11-20T11:01:49;20.13;;;8.38;;
59976;SDS011;45837;51.076;3.578;2022-11-20T11:06:49;22.13;;;7.82;;
59976;SDS011;45837;51.076;3.578;2022-11-20T11:09:23;22.40;;;7.50;;
59976;SDS011;45837;51.076;3.578;2022-11-20T11:11:57;21.77;;;8.05;;
59976;SDS011;45837;51.076;3.578;2022-11-20T11:14:23;19.83;;;6.93;;
59976;SDS011;45837;51.076;3.578;2022-11-20T11:16:53;24.98;;;7.57;;
59976;SDS011;45837;51.076;3.578;2022-11-20T11:19:21;18.20;;;7.47;;
59976;SDS011;45837;51.076;3.578;2022-11-20T11:21:47;20.90;;;6.68;;
59976;SDS011;45837;51.076;3.578;2022-11-20T11:24:21;27.13;;;7.40;;
59976;SDS011;45837;51.076;3.578;2022-11-20T11:26:54;16.63;;;6.20;;
59976;SDS011;45837;51.076;3.578;2022-11-20T11:29:22;18.67;;;5.47;;
59976;SDS011;45837;51.076;3.578;2022-11-20T11:31:48;11.82;;;5.05;;
59976;SDS011;45837;51.076;3.578;2022-11-20T11:34:15;11.18;;;5.35;;
59976;SDS011;45837;51.076;3.578;2022-11-20T11:36:49;16.60;;;5.25;;
59976;SDS011;45837;51.076;3.578;2022-11-20T11:39:21;20.83;;;4.95;;
59976;SDS011;45837;51.076;3.578;2022-11-20T11:41:48;12.93;;;5.10;;
59976;SDS011;45837;51.076;3.578;2022-11-20T11:46:58;16.17;;;4.68;;
59976;SDS011;45837;51.076;3.578;2022-11-20T11:49:24;17.45;;;4.55;;
59976;SDS011;45837;51.076;3.578;2022-11-20T11:54:50;18.80;;;4.53;;
59976;SDS011;45837;51.076;3.578;2022-11-20T12:00:14;19.50;;;4.38;;
59976;SDS011;45837;51.076;3.578;2022-11-20T12:08:05;11.15;;;3.80;;
59976;SDS011;45837;51.076;3.578;2022-11-20T12:10:43;11.00;;;4.43;;
59976;SDS011;45837;51.076;3.578;2022-11-20T12:13:34;21.25;;;4.95;;
59976;SDS011;45837;51.076;3.578;2022-11-20T12:16:14;16.10;;;4.38;;
59976;SDS011;45837;51.076;3.578;2022-11-20T12:18:43;22.45;;;5.25;;
59976;SDS011;45837;51.076;3.578;2022-11-20T12:21:54;30.20;;;4.57;;
59976;SDS011;45837;51.076;3.578;2022-11-20T12:24:08;19.73;;;4.63;;
59976;SDS011;45837;51.076;3.578;2022-11-20T12:29:31;18.73;;;4.82;;
59976;SDS011;45837;51.076;3.578;2022-11-20T12:32:31;15.18;;;4.72;;
59976;SDS011;45837;51.076;3.578;2022-11-20T12:37:48;16.92;;;4.40;;
59976;SDS011;45837;51.076;3.578;2022-11-20T12:40:32;21.40;;;4.85;;
59976;SDS011;45837;51.076;3.578;2022-11-20T12:46:03;17.33;;;4.57;;
59976;SDS011;45837;51.076;3.578;2022-11-20T12:48:41;16.92;;;4.78;;
59976;SDS011;45837;51.076;3.578;2022-11-20T12:59:37;74.22;;;32.55;;
59976;SDS011;45837;51.076;3.578;2022-11-20T13:07:42;65.97;;;29.55;;
59976;SDS011;45837;51.076;3.578;2022-11-20T13:10:21;76.70;;;30.85;;
59976;SDS011;45837;51.076;3.578;2022-11-20T13:12:58;74.03;;;28.95;;
59976;SDS011;45837;51.076;3.578;2022-11-20T13:18:10;55.30;;;24.60;;
59976;SDS011;45837;51.076;3.578;2022-11-20T13:20:42;52.60;;;24.42;;
59976;SDS011;45837;51.076;3.578;2022-11-20T13:23:09;59.75;;;24.65;;
59976;SDS011;45837;51.076;3.578;2022-11-20T13:25:36;55.17;;;23.70;;
59976;SDS011;45837;51.076;3.578;2022-11-20T13:28:04;53.25;;;23.10;;
59976;SDS011;45837;51.076;3.578;2022-11-20T13:30:33;51.45;;;23.15;;
59976;SDS011;45837;51.076;3.578;2022-11-20T13:33:08;45.40;;;23.38;;
59976;SDS011;45837;51.076;3.578;2022-11-20T13:36:04;50.80;;;21.67;;
59976;SDS011;45837;51.076;3.578;2022-11-20T13:41:32;46.13;;;23.98;;
59976;SDS011;45837;51.076;3.578;2022-11-20T13:44:09;48.95;;;23.77;;
59976;SDS011;45837;51.076;3.578;2022-11-20T13:46:48;46.00;;;26.05;;
59976;SDS011;45837;51.076;3.578;2022-11-20T13:49:23;44.78;;;25.08;;
59976;SDS011;45837;51.076;3.578;2022-11-20T13:51:55;40.75;;;24.67;;
59976;SDS011;45837;51.076;3.578;2022-11-20T14:02:44;35.45;;;19.60;;
59976;SDS011;45837;51.076;3.578;2022-11-20T14:05:20;29.63;;;17.98;;
59976;SDS011;45837;51.076;3.578;2022-11-20T14:07:47;24.70;;;15.40;;
59976;SDS011;45837;51.076;3.578;2022-11-20T14:10:33;26.23;;;15.90;;
59976;SDS011;45837;51.076;3.578;2022-11-20T14:13:09;29.17;;;14.82;;
59976;SDS011;45837;51.076;3.578;2022-11-20T14:15:36;24.08;;;14.05;;
59976;SDS011;45837;51.076;3.578;2022-11-20T14:18:20;27.70;;;14.18;;
59976;SDS011;45837;51.076;3.578;2022-11-20T14:20:47;21.60;;;12.27;;
59976;SDS011;45837;51.076;3.578;2022-11-20T14:23:22;24.25;;;12.25;;
59976;SDS011;45837;51.076;3.578;2022-11-20T14:25:50;23.98;;;11.38;;
59976;SDS011;45837;51.076;3.578;2022-11-20T14:28:21;18.67;;;11.82;;
59976;SDS011;45837;51.076;3.578;2022-11-20T14:30:55;25.67;;;10.48;;
59976;SDS011;45837;51.076;3.578;2022-11-20T14:33:22;26.33;;;9.60;;
59976;SDS011;45837;51.076;3.578;2022-11-20T14:35:56;16.42;;;9.43;;
59976;SDS011;45837;51.076;3.578;2022-11-20T14:38:32;22.55;;;8.80;;
59976;SDS011;45837;51.076;3.578;2022-11-20T14:41:08;20.88;;;8.60;;
59976;SDS011;45837;51.076;3.578;2022-11-20T14:43:34;20.60;;;8.73;;
59976;SDS011;45837;51.076;3.578;2022-11-20T14:46:07;19.90;;;8.77;;
59976;SDS011;45837;51.076;3.578;2022-11-20T14:48:38;27.00;;;9.05;;
59976;SDS011;45837;51.076;3.578;2022-11-20T14:51:35;14.57;;;7.38;;
59976;SDS011;45837;51.076;3.578;2022-11-20T14:54:14;17.38;;;7.20;;
59976;SDS011;45837;51.076;3.578;2022-11-20T14:56:53;27.63;;;7.90;;
59976;SDS011;45837;51.076;3.578;2022-11-20T14:59:33;21.33;;;7.57;;
59976;SDS011;45837;51.076;3.578;2022-11-20T15:02:10;19.60;;;6.70;;
59976;SDS011;45837;51.076;3.578;2022-11-20T15:07:27;23.35;;;6.05;;
59976;SDS011;45837;51.076;3.578;2022-11-20T15:12:30;16.55;;;7.00;;
59976;SDS011;45837;51.076;3.578;2022-11-20T15:14:58;23.27;;;6.70;;
59976;SDS011;45837;51.076;3.578;2022-11-20T15:17:24;14.88;;;5.28;;
59976;SDS011;45837;51.076;3.578;2022-11-20T15:19:50;23.40;;;5.88;;
59976;SDS011;45837;51.076;3.578;2022-11-20T15:22:17;15.88;;;5.55;;
59976;SDS011;45837;51.076;3.578;2022-11-20T15:24:43;17.25;;;5.47;;
59976;SDS011;45837;51.076;3.578;2022-11-20T15:27:09;23.33;;;5.60;;
59976;SDS011;45837;51.076;3.578;2022-11-20T15:29:36;22.77;;;5.68;;
59976;SDS011;45837;51.076;3.578;2022-11-20T15:32:01;22.15;;;5.05;;
59976;SDS011;45837;51.076;3.578;2022-11-20T15:34:27;28.48;;;5.43;;
59976;SDS011;45837;51.076;3.578;2022-11-20T15:36:53;27.63;;;4.93;;
59976;SDS011;45837;51.076;3.578;2022-11-20T15:39:19;26.95;;;5.68;;
59976;SDS011;45837;51.076;3.578;2022-11-20T15:41:46;24.58;;;4.25;;
59976;SDS011;45837;51.076;3.578;2022-11-20T15:44:11;40.25;;;4.97;;
59976;SDS011;45837;51.076;3.578;2022-11-20T15:46:38;26.42;;;5.20;;
59976;SDS011;45837;51.076;3.578;2022-11-20T15:49:15;35.58;;;5.45;;
59976;SDS011;45837;51.076;3.578;2022-11-20T15:51:43;45.13;;;6.82;;
59976;SDS011;45837;51.076;3.578;2022-11-20T15:54:12;44.13;;;6.15;;
59976;SDS011;45837;51.076;3.578;2022-11-20T15:56:45;35.63;;;6.10;;
59976;SDS011;45837;51.076;3.578;2022-11-20T15:59:11;52.97;;;6.05;;
59976;SDS011;45837;51.076;3.578;2022-11-20T16:01:40;40.30;;;5.78;;
59976;SDS011;45837;51.076;3.578;2022-11-20T16:04:10;47.50;;;5.43;;
59976;SDS011;45837;51.076;3.578;2022-11-20T16:06:37;49.72;;;5.60;;
59976;SDS011;45837;51.076;3.578;2022-11-20T16:09:03;69.28;;;6.38;;
59976;SDS011;45837;51.076;3.578;2022-11-20T16:11:29;54.63;;;5.90;;
59976;SDS011;45837;51.076;3.578;2022-11-20T16:13:55;47.78;;;6.13;;
59976;SDS011;45837;51.076;3.578;2022-11-20T16:16:39;43.38;;;5.53;;
59976;SDS011;45837;51.076;3.578;2022-11-20T16:19:15;48.92;;;5.82;;
59976;SDS011;45837;51.076;3.578;2022-11-20T16:21:43;28.95;;;4.80;;